Startpagina
METAR-TAF:

METAR-TAF

Vliegvelden :

Dala Airport

Borlänge, Zweden

breedte: 60-26N, lengte: 015-31E, hoogte: 145 m

Actueel weer

Dit bericht is 36 minuten geleden gemaakt, om 01:50 UTC
Wind 9 kt uit het noordoosten
Temperatuur 11°C
Vochtigheid 94%
Druk 991 hPa
Zicht 10 km of meer
lichte regen

METAR: ESSD 060150Z AUTO 05009KT 9999 -RA BKN006/// OVC008/// 11/10 Q0991

Tijdstip: 04:26 (02:26 UTC)

Verwachting

Dit bericht is 14 uur en het 56 minuten geleden gemaakt, om 11:30 UTC
Verwachting geldig van 05 om 12 UTC tot 05 om 15 UTC
Wind 12 kt uit het oostzuidoosten
Zicht 10 km of meer
Gebroken wolken op 5000 ft

TAF: ESSD 051130Z 0512/0515 12012KT 9999 BKN050

Waarnemingen en weersverwachtingen van meer dan 4000 vliegvelden (METAR en TAF).

De beschikbare stations zijn de gele en rode punten op de kaart.

Ga met uw muis naar het station om de naam te zien.

Klik dan om waarnemingen en weersverwachtingen te zien.

kaart wijzigen: klik op de groene knoppen met een zwart kruis om in te zoomen, op de groene knop met een streepje om uit te zoomen of op de groene pijlen voor aangrenzende kaarten.


METAR-TAF: